createdAt,value
2018-11-10T00:00:01.559Z,25.55
2018-11-10T00:02:30.280Z,23.80
2018-11-10T00:04:57.851Z,23.07
2018-11-10T00:07:25.433Z,28.43
2018-11-10T00:09:58.774Z,28.65
2018-11-10T00:12:26.362Z,28.23
2018-11-10T00:14:54.015Z,24.47
2018-11-10T00:17:21.584Z,28.20
2018-11-10T00:19:49.235Z,24.37
2018-11-10T00:22:16.804Z,26.93
2018-11-10T00:24:44.332Z,31.30
2018-11-10T00:27:11.984Z,25.80
2018-11-10T00:29:39.506Z,28.95
2018-11-10T00:32:07.066Z,25.45
2018-11-10T00:34:34.750Z,29.90
2018-11-10T00:37:03.830Z,24.80
2018-11-10T00:39:31.467Z,19.90
2018-11-10T00:41:59.107Z,28.27
2018-11-10T00:44:27.146Z,23.23
2018-11-10T00:46:54.733Z,29.50
2018-11-10T00:49:22.329Z,24.67
2018-11-10T00:51:50.142Z,32.10
2018-11-10T00:54:17.734Z,27.73
2018-11-10T00:56:45.351Z,19.90
2018-11-10T00:59:13.163Z,32.10
2018-11-10T01:01:40.750Z,28.10
2018-11-10T01:04:08.321Z,30.70
2018-11-10T01:06:35.924Z,21.07
2018-11-10T01:09:04.171Z,16.53
2018-11-10T01:11:31.729Z,23.67
2018-11-10T01:13:59.335Z,22.33
2018-11-10T01:16:26.978Z,20.57
2018-11-10T01:18:54.538Z,22.30
2018-11-10T01:21:22.230Z,23.03
2018-11-10T01:23:49.794Z,18.67
2018-11-10T01:26:17.430Z,23.07
2018-11-10T01:28:44.994Z,21.52
2018-11-10T01:31:12.582Z,18.40
2018-11-10T01:33:40.284Z,23.93
2018-11-10T01:36:07.877Z,23.73
2018-11-10T01:38:35.758Z,24.27
2018-11-10T01:41:03.652Z,19.80
2018-11-10T01:43:31.472Z,31.67
2018-11-10T01:45:59.167Z,18.07
2018-11-10T01:48:26.702Z,19.77
2018-11-10T01:50:54.369Z,20.80
2018-11-10T01:53:21.953Z,23.27
2018-11-10T01:55:49.635Z,22.73
2018-11-10T01:58:17.214Z,33.30
2018-11-10T02:00:44.803Z,19.77
2018-11-10T02:03:12.387Z,29.40
2018-11-10T02:05:39.926Z,30.48
2018-11-10T02:08:07.593Z,26.93
2018-11-10T02:10:35.178Z,20.60
2018-11-10T02:13:03.960Z,27.62
2018-11-10T02:15:31.562Z,24.25
2018-11-10T02:17:59.213Z,22.50
2018-11-10T02:20:26.822Z,25.03
2018-11-10T02:22:54.466Z,25.93
2018-11-10T02:25:22.085Z,28.30
2018-11-10T02:27:49.732Z,28.80
2018-11-10T02:30:17.383Z,28.03
2018-11-10T02:32:45.019Z,26.70
2018-11-10T02:35:13.094Z,22.47
2018-11-10T02:37:41.167Z,25.80
2018-11-10T02:40:09.506Z,24.80
2018-11-10T02:42:37.087Z,26.73
2018-11-10T02:45:05.714Z,27.00
2018-11-10T02:47:33.309Z,20.73
2018-11-10T02:50:01.920Z,25.03
2018-11-10T02:52:30.069Z,26.73
2018-11-10T02:54:57.940Z,31.10
2018-11-10T02:57:25.551Z,31.03
2018-11-10T02:59:53.103Z,29.53
2018-11-10T03:02:20.674Z,27.37
2018-11-10T03:04:48.290Z,29.43
2018-11-10T03:07:15.925Z,25.93
2018-11-10T03:09:43.525Z,36.40
2018-11-10T03:12:11.111Z,25.67
2018-11-10T03:14:38.722Z,28.73
2018-11-10T03:17:06.281Z,25.53
2018-11-10T03:19:33.877Z,28.00
2018-11-10T03:22:02.138Z,26.73
2018-11-10T03:24:30.319Z,31.77
2018-11-10T03:26:58.024Z,25.23
2018-11-10T03:29:25.568Z,24.60
2018-11-10T03:31:53.254Z,20.20
2018-11-10T03:34:20.852Z,25.80
2018-11-10T03:36:48.414Z,26.73
2018-11-10T03:39:16.025Z,32.05
2018-11-10T03:41:43.588Z,26.00
2018-11-10T03:44:11.602Z,29.73
2018-11-10T03:46:39.980Z,21.20
2018-11-10T03:49:07.607Z,21.13
2018-11-10T03:51:35.407Z,24.33
2018-11-10T03:54:03.429Z,31.57
2018-11-10T03:56:31.158Z,25.23
2018-11-10T03:58:58.768Z,33.53
2018-11-10T04:01:26.283Z,24.03
2018-11-10T04:03:53.971Z,30.33
2018-11-10T04:06:21.939Z,27.00
2018-11-10T04:08:49.527Z,24.33
2018-11-10T04:11:17.104Z,27.27
2018-11-10T04:13:44.734Z,28.30
2018-11-10T04:16:12.306Z,32.73
2018-11-10T04:18:40.522Z,25.23
2018-11-10T04:21:08.095Z,24.80
2018-11-10T04:23:35.634Z,22.90
2018-11-10T04:26:03.176Z,22.37
2018-11-10T04:28:30.940Z,26.07
2018-11-10T04:30:58.525Z,21.40
2018-11-10T04:33:26.263Z,18.97
2018-11-10T04:35:53.845Z,25.48
2018-11-10T04:38:21.515Z,25.08
2018-11-10T04:40:49.147Z,26.83
2018-11-10T04:43:16.776Z,21.13
2018-11-10T04:45:44.371Z,30.83
2018-11-10T04:48:12.105Z,25.30
2018-11-10T04:50:39.706Z,22.77
2018-11-10T04:53:07.282Z,23.33
2018-11-10T04:55:35.159Z,22.03
2018-11-10T04:58:03.214Z,24.00
2018-11-10T05:00:31.166Z,18.10
2018-11-10T05:02:58.734Z,17.57
2018-11-10T05:05:26.323Z,20.87
2018-11-10T05:07:53.909Z,16.97
2018-11-10T05:10:21.654Z,18.10
2018-11-10T05:12:49.496Z,16.73
2018-11-10T05:15:17.029Z,23.13
2018-11-10T05:17:44.571Z,17.32
2018-11-10T05:20:12.169Z,17.10
2018-11-10T05:22:39.719Z,14.63
2018-11-10T05:25:07.946Z,17.32
2018-11-10T05:27:35.511Z,13.10
2018-11-10T05:30:03.206Z,18.60
2018-11-10T05:32:31.251Z,14.43
2018-11-10T05:34:58.822Z,16.60
2018-11-10T05:37:26.388Z,11.67
2018-11-10T05:39:53.962Z,13.28
2018-11-10T05:42:21.562Z,13.97
2018-11-10T05:44:49.212Z,11.97
2018-11-10T05:47:16.786Z,14.80
2018-11-10T05:49:44.385Z,15.60
2018-11-10T05:52:12.158Z,13.23
2018-11-10T05:54:39.977Z,12.90
2018-11-10T05:57:07.577Z,20.20
2018-11-10T05:59:35.305Z,14.97
2018-11-10T06:02:03.029Z,14.20
2018-11-10T06:04:30.606Z,19.00
2018-11-10T06:06:58.737Z,12.83
2018-11-10T06:09:26.300Z,11.73
2018-11-10T06:11:53.898Z,10.90
2018-11-10T06:14:21.480Z,10.57
2018-11-10T06:16:49.030Z,15.73
2018-11-10T06:19:16.665Z,13.43
2018-11-10T06:21:44.265Z,11.80
2018-11-10T06:24:11.888Z,13.33
2018-11-10T06:26:39.467Z,13.80
2018-11-10T06:29:07.085Z,16.57
2018-11-10T06:31:34.641Z,13.17
2018-11-10T06:34:02.790Z,12.90
2018-11-10T06:36:30.419Z,12.70
2018-11-10T06:38:57.949Z,10.30
2018-11-10T06:41:25.630Z,10.83
2018-11-10T06:43:53.512Z,12.07
2018-11-10T06:46:21.061Z,14.80
2018-11-10T06:48:48.641Z,9.65
2018-11-10T06:51:16.296Z,11.90
2018-11-10T06:53:43.874Z,12.57
2018-11-10T06:56:11.519Z,13.93
2018-11-10T06:58:39.177Z,10.00
2018-11-10T07:01:06.821Z,11.63
2018-11-10T07:03:34.480Z,9.53
2018-11-10T07:06:02.160Z,13.67
2018-11-10T07:08:29.804Z,11.70
2018-11-10T07:10:57.335Z,9.45
2018-11-10T07:13:24.984Z,10.05
2018-11-10T07:15:53.022Z,11.67
2018-11-10T07:18:20.621Z,16.20
2018-11-10T07:20:48.176Z,12.98
2018-11-10T07:23:15.793Z,18.37
2018-11-10T07:25:43.443Z,13.40
2018-11-10T07:28:11.130Z,12.97
2018-11-10T07:30:38.774Z,12.03
2018-11-10T07:33:06.356Z,14.60
2018-11-10T07:35:33.956Z,10.13
2018-11-10T07:38:02.202Z,10.80
2018-11-10T07:40:29.867Z,14.00
2018-11-10T07:42:57.437Z,13.67
2018-11-10T07:45:25.032Z,17.60
2018-11-10T07:47:52.534Z,15.00
2018-11-10T07:50:22.653Z,12.33
2018-11-10T07:52:50.214Z,11.85
2018-11-10T07:55:17.841Z,16.10
2018-11-10T07:57:45.364Z,14.67
2018-11-10T08:00:15.102Z,12.77
2018-11-10T08:02:43.328Z,11.63
2018-11-10T08:05:19.936Z,11.50
2018-11-10T08:07:47.756Z,17.65
2018-11-10T08:10:15.594Z,12.20
2018-11-10T08:12:43.154Z,11.73
2018-11-10T08:15:12.511Z,11.63
2018-11-10T08:17:40.530Z,13.43
2018-11-10T08:20:08.446Z,16.73
2018-11-10T08:22:36.045Z,15.30
2018-11-10T08:25:03.713Z,11.60
2018-11-10T08:27:31.471Z,12.20
2018-11-10T08:29:59.317Z,17.90
2018-11-10T08:32:27.300Z,10.33
2018-11-10T08:34:55.108Z,15.47
2018-11-10T08:37:22.718Z,15.63
2018-11-10T08:39:50.391Z,10.53
2018-11-10T08:42:18.010Z,16.25
2018-11-10T08:44:45.608Z,12.70
2018-11-10T08:47:13.238Z,19.13
2018-11-10T08:49:40.893Z,11.20
2018-11-10T08:52:08.815Z,10.60
2018-11-10T08:54:36.475Z,12.60
2018-11-10T08:57:04.092Z,16.45
2018-11-10T08:59:31.650Z,13.98
2018-11-10T09:01:59.501Z,12.20
2018-11-10T09:04:27.094Z,17.10
2018-11-10T09:06:54.657Z,10.93
2018-11-10T09:09:22.259Z,12.47
2018-11-10T09:11:49.835Z,15.03
2018-11-10T09:14:17.478Z,16.33
2018-11-10T09:16:45.107Z,14.40
2018-11-10T09:19:12.788Z,11.00
2018-11-10T09:21:40.485Z,14.17
2018-11-10T09:24:08.040Z,21.30
2018-11-10T09:26:35.635Z,13.70
2018-11-10T09:29:03.330Z,17.10
2018-11-10T09:31:31.810Z,16.67
2018-11-10T09:33:59.398Z,12.85
2018-11-10T09:36:28.453Z,17.63
2018-11-10T09:38:56.019Z,14.53
2018-11-10T09:41:23.665Z,12.23
2018-11-10T09:43:51.769Z,14.73
2018-11-10T09:46:19.407Z,15.23
2018-11-10T09:48:47.670Z,16.63
2018-11-10T09:51:15.276Z,14.90
2018-11-10T09:53:42.938Z,15.43
2018-11-10T09:56:10.575Z,15.60
2018-11-10T09:58:38.265Z,13.50
2018-11-10T10:01:06.064Z,14.43
2018-11-10T10:03:33.650Z,14.37
2018-11-10T10:06:01.422Z,16.10
2018-11-10T10:08:29.074Z,15.80
2018-11-10T10:10:56.725Z,14.47
2018-11-10T10:13:24.306Z,17.23
2018-11-10T10:15:51.937Z,12.70
2018-11-10T10:18:19.597Z,18.23
2018-11-10T10:20:47.167Z,13.20
2018-11-10T10:23:14.766Z,17.63
2018-11-10T10:25:42.377Z,16.60
2018-11-10T10:28:10.007Z,13.90
2018-11-10T10:30:37.624Z,13.43
2018-11-10T10:33:05.265Z,15.20
2018-11-10T10:35:32.978Z,19.10
2018-11-10T10:38:00.430Z,19.65
2018-11-10T10:40:28.842Z,16.30
2018-11-10T10:42:56.483Z,28.13
2018-11-10T10:45:24.317Z,20.27
2018-11-10T10:47:52.006Z,15.33
2018-11-10T10:50:20.904Z,18.20
2018-11-10T10:52:48.458Z,16.70
2018-11-10T10:55:16.987Z,15.20
2018-11-10T10:57:45.795Z,10.73
2018-11-10T11:00:18.870Z,20.97
2018-11-10T11:02:51.999Z,17.63
2018-11-10T11:05:24.985Z,19.70
2018-11-10T11:07:52.708Z,19.47
2018-11-10T11:10:21.131Z,19.77
2018-11-10T11:12:48.792Z,22.10
2018-11-10T11:15:16.482Z,20.40
2018-11-10T11:17:43.891Z,16.47
2018-11-10T11:20:12.830Z,14.53
2018-11-10T11:22:41.119Z,18.63
2018-11-10T11:25:08.650Z,17.10
2018-11-10T11:27:36.274Z,17.03
2018-11-10T11:30:06.420Z,17.82
2018-11-10T11:32:33.979Z,19.17
2018-11-10T11:35:03.211Z,16.77
2018-11-10T11:37:30.747Z,26.03
2018-11-10T11:39:58.386Z,20.90
2018-11-10T11:42:25.974Z,19.80
2018-11-10T11:44:53.618Z,16.65
2018-11-10T11:47:21.364Z,17.63
2018-11-10T11:49:48.964Z,15.95
2018-11-10T11:52:16.899Z,16.23
2018-11-10T11:54:44.457Z,18.73
2018-11-10T11:57:12.038Z,12.27
2018-11-10T11:59:39.575Z,19.90
2018-11-10T12:02:07.229Z,16.93
2018-11-10T12:04:34.910Z,13.07
2018-11-10T12:07:03.276Z,19.30
2018-11-10T12:09:30.862Z,19.30
2018-11-10T12:11:58.551Z,14.70
2018-11-10T12:14:26.186Z,14.70
2018-11-10T12:16:54.130Z,13.43
2018-11-10T12:19:21.760Z,13.67
2018-11-10T12:21:49.734Z,30.13
2018-11-10T12:24:17.525Z,14.83
2018-11-10T12:26:45.398Z,13.63
2018-11-10T12:29:12.883Z,12.87
2018-11-10T12:31:40.512Z,14.80
2018-11-10T12:34:10.038Z,15.17
2018-11-10T12:36:37.599Z,17.02
2018-11-10T12:39:10.326Z,14.50
2018-11-10T12:41:37.893Z,16.37
2018-11-10T12:44:06.133Z,10.93
2018-11-10T12:46:33.666Z,15.67
2018-11-10T12:49:06.432Z,14.18
2018-11-10T12:51:33.881Z,12.93
2018-11-10T12:54:08.136Z,14.87
2018-11-10T12:56:35.922Z,16.20
2018-11-10T12:59:03.658Z,10.53
2018-11-10T13:01:31.298Z,12.37
2018-11-10T13:03:58.850Z,11.50
2018-11-10T13:06:26.501Z,12.43
2018-11-10T13:08:54.080Z,13.70
2018-11-10T13:11:21.849Z,16.20
2018-11-10T13:13:49.316Z,13.40
2018-11-10T13:16:16.872Z,11.30
2018-11-10T13:18:44.415Z,21.15
2018-11-10T13:21:11.974Z,15.27
2018-11-10T13:23:39.531Z,11.60
2018-11-10T13:26:07.114Z,17.13
2018-11-10T13:28:34.740Z,16.97
2018-11-10T13:31:03.063Z,14.90
2018-11-10T13:33:30.576Z,14.07
2018-11-10T13:35:58.154Z,16.53
2018-11-10T13:38:25.747Z,18.03
2018-11-10T13:40:53.245Z,16.90
2018-11-10T13:43:20.834Z,13.40
2018-11-10T13:45:48.362Z,14.10
2018-11-10T13:48:15.937Z,15.67
2018-11-10T13:50:43.719Z,14.03
2018-11-10T13:53:11.276Z,10.13
2018-11-10T13:55:38.965Z,13.80
2018-11-10T13:58:06.499Z,16.53
2018-11-10T14:00:34.444Z,14.50
2018-11-10T14:03:03.727Z,16.30
2018-11-10T14:05:31.336Z,15.57
2018-11-10T14:07:58.870Z,14.30
2018-11-10T14:10:26.501Z,11.37
2018-11-10T14:12:54.189Z,16.10
2018-11-10T14:15:21.642Z,16.43
2018-11-10T14:17:49.616Z,14.07
2018-11-10T14:20:18.000Z,21.00
2018-11-10T14:22:46.320Z,16.30
2018-11-10T14:25:14.923Z,13.57
2018-11-10T14:27:43.416Z,20.60
2018-11-10T14:30:12.402Z,14.70
2018-11-10T14:32:40.568Z,11.10
2018-11-10T14:35:08.941Z,14.17
2018-11-10T14:37:36.688Z,13.50
2018-11-10T14:40:05.544Z,9.57
2018-11-10T14:42:33.107Z,10.70
2018-11-10T14:45:00.704Z,15.13
2018-11-10T14:47:28.214Z,13.83
2018-11-10T14:49:55.979Z,14.73
2018-11-10T14:52:23.870Z,11.00
2018-11-10T14:54:51.367Z,16.77
2018-11-10T14:57:18.940Z,11.40
2018-11-10T14:59:46.511Z,11.03
2018-11-10T15:02:14.078Z,14.97
2018-11-10T15:04:41.703Z,13.85
2018-11-10T15:07:09.303Z,11.93
2018-11-10T15:09:37.579Z,14.35
2018-11-10T15:12:05.173Z,10.63
2018-11-10T15:14:32.732Z,13.03
2018-11-10T15:17:00.235Z,14.30
2018-11-10T15:19:27.823Z,10.30
2018-11-10T15:21:55.352Z,13.07
2018-11-10T15:24:23.118Z,10.93
2018-11-10T15:26:50.706Z,11.30
2018-11-10T15:29:18.264Z,12.50
2018-11-10T15:31:45.862Z,12.80
2018-11-10T15:34:13.440Z,20.80
2018-11-10T15:36:41.230Z,12.83
2018-11-10T15:39:09.024Z,14.93
2018-11-10T15:41:36.596Z,19.07
2018-11-10T15:44:04.607Z,19.73
2018-11-10T15:46:32.163Z,9.40
2018-11-10T15:48:59.743Z,13.33
2018-11-10T15:51:27.354Z,11.65
2018-11-10T15:53:55.156Z,10.77
2018-11-10T15:56:22.918Z,15.77
2018-11-10T15:58:50.502Z,15.53
2018-11-10T16:01:18.070Z,10.40
2018-11-10T16:03:45.826Z,11.13
2018-11-10T16:06:13.388Z,11.67
2018-11-10T16:08:41.951Z,10.13
2018-11-10T16:11:09.546Z,11.40
2018-11-10T16:13:37.194Z,11.10
2018-11-10T16:16:04.854Z,14.77
2018-11-10T16:18:32.447Z,15.37
2018-11-10T16:21:00.205Z,13.37
2018-11-10T16:23:28.302Z,14.03
2018-11-10T16:25:55.914Z,15.43
2018-11-10T16:28:23.723Z,12.80
2018-11-10T16:30:51.265Z,15.63
2018-11-10T16:33:19.066Z,17.42
2018-11-10T16:35:46.628Z,14.13
2018-11-10T16:38:14.250Z,19.13
2018-11-10T16:40:41.944Z,17.77
2018-11-10T16:43:09.538Z,10.73
2018-11-10T16:45:37.124Z,14.73
2018-11-10T16:48:04.909Z,14.30
2018-11-10T16:50:32.505Z,17.40
2018-11-10T16:53:00.172Z,13.83
2018-11-10T16:55:28.198Z,13.67
2018-11-10T16:57:55.754Z,13.93
2018-11-10T17:00:23.459Z,13.63
2018-11-10T17:02:51.060Z,14.17
2018-11-10T17:05:18.770Z,9.67
2018-11-10T17:07:46.343Z,14.43
2018-11-10T17:10:15.232Z,14.90
2018-11-10T17:12:42.906Z,13.00
2018-11-10T17:21:01.451Z,15.37
2018-11-10T17:23:37.863Z,15.23
2018-11-10T17:26:17.762Z,13.30
2018-11-10T17:28:45.361Z,14.70
2018-11-10T17:31:12.920Z,14.10
2018-11-10T17:33:40.467Z,11.97
2018-11-10T17:36:08.122Z,13.30
2018-11-10T17:38:35.951Z,15.93
2018-11-10T17:41:04.130Z,21.53
2018-11-10T17:43:31.976Z,16.20
2018-11-10T17:45:59.878Z,15.55
2018-11-10T17:48:31.170Z,17.07
2018-11-10T17:50:59.727Z,21.07
2018-11-10T17:53:38.112Z,18.00
2018-11-10T17:56:12.518Z,12.77
2018-11-10T17:58:44.383Z,18.60
2018-11-10T18:01:12.242Z,13.50
2018-11-10T18:03:40.011Z,11.78
2018-11-10T18:06:07.505Z,13.07
2018-11-10T18:08:35.129Z,15.83
2018-11-10T18:11:02.673Z,22.65
2018-11-10T18:13:30.317Z,14.33
2018-11-10T18:15:57.859Z,21.67
2018-11-10T18:18:25.658Z,17.00
2018-11-10T18:20:53.162Z,16.37
2018-11-10T18:23:20.776Z,13.10
2018-11-10T18:25:48.315Z,16.93
2018-11-10T18:28:15.850Z,14.70
2018-11-10T18:30:43.438Z,15.48
2018-11-10T18:33:12.010Z,29.20
2018-11-10T18:35:39.561Z,13.60
2018-11-10T18:38:07.482Z,14.97
2018-11-10T18:40:35.055Z,11.87
2018-11-10T18:43:02.839Z,17.77
2018-11-10T18:45:30.402Z,17.37
2018-11-10T18:47:57.973Z,13.83
2018-11-10T18:50:25.547Z,12.80
2018-11-10T18:52:53.179Z,15.80
2018-11-10T18:55:20.807Z,15.77
2018-11-10T18:57:48.377Z,12.20
2018-11-10T19:00:16.959Z,14.10
2018-11-10T19:02:45.085Z,12.85
2018-11-10T19:05:14.146Z,14.13
2018-11-10T19:07:41.723Z,20.05
2018-11-10T19:10:10.766Z,13.45
2018-11-10T19:12:38.665Z,13.83
2018-11-10T19:15:08.863Z,16.57
2018-11-10T19:17:36.471Z,15.35
2018-11-10T19:20:04.121Z,15.00
2018-11-10T19:22:31.846Z,9.28
2018-11-10T19:24:59.398Z,10.95
2018-11-10T19:27:27.001Z,13.43
2018-11-10T19:29:54.647Z,16.60
2018-11-10T19:32:22.264Z,10.63
2018-11-10T19:34:49.791Z,15.03
2018-11-10T19:37:18.377Z,14.90
2018-11-10T19:39:46.034Z,13.03
2018-11-10T19:42:13.582Z,16.80
2018-11-10T19:44:41.315Z,15.83
2018-11-10T19:47:08.895Z,14.00
2018-11-10T19:49:36.471Z,16.40
2018-11-10T19:52:06.737Z,26.60
2018-11-10T19:54:34.250Z,13.77
2018-11-10T19:57:03.471Z,14.57
2018-11-10T19:59:32.562Z,16.60
2018-11-10T20:02:00.096Z,16.10
2018-11-10T20:04:29.771Z,14.50
2018-11-10T20:06:58.191Z,13.23
2018-11-10T20:09:26.966Z,13.63
2018-11-10T20:11:54.578Z,14.70
2018-11-10T20:14:22.191Z,16.80
2018-11-10T20:16:49.795Z,13.07
2018-11-10T20:19:17.585Z,16.52
2018-11-10T20:21:45.450Z,16.60
2018-11-10T20:24:12.981Z,11.73
2018-11-10T20:26:40.594Z,13.83
2018-11-10T20:29:10.161Z,15.00
2018-11-10T20:31:37.746Z,18.95
2018-11-10T20:34:05.526Z,10.80
2018-11-10T20:36:33.086Z,13.50
2018-11-10T20:39:00.774Z,12.97
2018-11-10T20:41:28.310Z,20.13
2018-11-10T20:43:55.952Z,8.60
2018-11-10T20:46:23.621Z,16.70
2018-11-10T20:48:51.193Z,14.27
2018-11-10T20:51:18.896Z,12.83
2018-11-10T20:53:52.927Z,16.03
2018-11-10T20:56:20.520Z,15.50
2018-11-10T20:58:48.162Z,17.30
2018-11-10T21:01:15.721Z,13.43
2018-11-10T21:03:43.274Z,13.93
2018-11-10T21:06:11.727Z,18.50
2018-11-10T21:08:39.246Z,14.07
2018-11-10T21:11:06.946Z,12.23
2018-11-10T21:13:34.650Z,11.20
2018-11-10T21:16:05.850Z,15.43
2018-11-10T21:18:33.473Z,10.67
2018-11-10T21:21:01.739Z,12.23
2018-11-10T21:23:29.347Z,15.45
2018-11-10T21:25:57.014Z,9.23
2018-11-10T21:28:24.554Z,13.37
2018-11-10T21:30:52.302Z,18.27
2018-11-10T21:33:20.947Z,11.87
2018-11-10T21:35:48.526Z,12.20
2018-11-10T21:38:16.098Z,13.90
2018-11-10T21:40:43.662Z,12.27
2018-11-10T21:43:11.622Z,13.68
2018-11-10T21:45:39.162Z,12.47
2018-11-10T21:48:06.999Z,15.70
2018-11-10T21:50:35.643Z,9.50
2018-11-10T21:53:03.497Z,12.30
2018-11-10T22:06:46.900Z,10.32
2018-11-10T22:09:14.594Z,16.70
2018-11-10T22:11:43.599Z,15.93
2018-11-10T22:14:11.114Z,17.50
2018-11-10T22:16:38.674Z,11.80
2018-11-10T22:19:07.395Z,12.93
2018-11-10T22:21:35.078Z,12.60
2018-11-10T22:24:02.723Z,13.58
2018-11-10T22:26:30.299Z,17.87
2018-11-10T22:28:57.993Z,13.30
2018-11-10T22:31:25.967Z,14.03
2018-11-10T22:33:53.784Z,12.50
2018-11-10T22:36:21.333Z,12.27
2018-11-10T22:38:53.977Z,12.10
2018-11-10T22:41:21.537Z,10.90
2018-11-10T22:43:50.113Z,9.10
2018-11-10T22:46:17.646Z,10.55
2018-11-10T22:48:47.759Z,14.60
2018-11-10T22:51:15.310Z,9.33
2018-11-10T22:53:42.869Z,17.30
2018-11-10T22:56:10.438Z,17.63
2018-11-10T22:58:37.996Z,10.60
2018-11-10T23:01:08.859Z,11.65
2018-11-10T23:03:37.168Z,13.80
2018-11-10T23:06:05.253Z,11.00
2018-11-10T23:08:32.805Z,18.27
2018-11-10T23:11:02.658Z,10.13
2018-11-10T23:13:30.191Z,14.73
2018-11-10T23:15:57.890Z,16.10
2018-11-10T23:18:25.507Z,14.97
2018-11-10T23:20:53.074Z,16.53
2018-11-10T23:23:22.721Z,14.40
2018-11-10T23:25:51.461Z,16.95
2018-11-10T23:28:19.075Z,13.20
2018-11-10T23:30:48.779Z,19.43
2018-11-10T23:33:17.435Z,15.40
2018-11-10T23:35:45.018Z,13.53
2018-11-10T23:38:12.619Z,13.75
2018-11-10T23:40:40.171Z,12.77
2018-11-10T23:43:07.762Z,13.00
2018-11-10T23:45:35.330Z,13.58
2018-11-10T23:48:03.545Z,15.53
2018-11-10T23:50:31.090Z,13.57
2018-11-10T23:52:59.730Z,13.43
2018-11-10T23:55:27.362Z,14.73
2018-11-10T23:57:54.913Z,16.77
